首页
METAR-TAF:

METAR-TAF

机场 :

倫敦希斯路機場, 英格兰

纬度: 51-29N, 经度: 000-27W, 海拔: 24米

当前天气观测

该预报发布于19分钟前的11:20 UTC
风速3节,风向多变
温度 19°C
湿度 49%
气压 1032 hPa
能见度10公里或以上

METAR: EGLL 191120Z AUTO VRB03KT 9999 NCD 19/08 Q1032 NOSIG

时间: 12:39 (11:39 UTC)

预报

该预报发布于6小时和46分钟前的04:53 UTC
预报有效从19日的 06点(UTC)到 20日的 12点(UTC)
风速3节,风向多变
能见度10公里或以上
少量云层高于4000英尺
几率 30%
从 19日的 06点(UTC)到 19日的 08点(UTC)
能見度: 9000
几率 30%
从 20日的 03点(UTC)到 20日的 08点(UTC)
能見度: 7000
成为
从 20日的 08点(UTC)到 20日的 11点(UTC)
风速10节,风向

TAF: EGLL 190453Z 1906/2012 VRB03KT 9999 FEW040 PROB30 1906/1908 9000 PROB30 2003/2008 7000 BECMG 2008/2011 10010KT

超过4000个机场的气象观测和天气预报(METAR&TAF报告)。

可查询的气象台以黄色和红色小点在地图上表示。

将鼠标移到小点上方,可查看气象台名称。

然后点击查看天气观测和预报。

如需切换地图:点击带黑十字的绿色按钮放大地图;点击带横线的绿色按钮缩小地图;或者点击绿色箭头查看邻近地区的地图。


METAR-TAF: